Birken, Canada
Current Conditions -  °F | °C
As of 12:00 AM on Monday 24 Nov 2014 (Local Time) from CWLY Reporting Station
Few Clouds Few Clouds  
Wind Chill: 35°   Ceiling: Unl
Heat Index: 43°   Visibility: 9mi
Dew Point: 36°   Wind: 17mph
Humidity: 76%   Direction: 190°S
Pressure: 30.22"   Gusts: 28mph
Location:  50.48°N, 122.61°W
Report Text: CWLY 240800Z AUTO 19015G24KT 160V230 9SM FEW210 06/02 A3022 RMK PRESRR SLP239
Loading
Personal Weather Stations






























Interactive Weather Map New forecast layout! Learn more

10-Day Weather Forecast

Advertisements
Track Severe Weather on mobile